sensor_id;sensor_type;location;lat;lon;timestamp;P1;durP1;ratioP1;P2;durP2;ratioP2
26391;SDS011;14572;43.120;1.178;2023-03-04T05:58:29;33.70;;;18.23;;
26391;SDS011;14572;43.120;1.178;2023-03-04T06:00:58;35.17;;;17.23;;
26391;SDS011;14572;43.120;1.178;2023-03-04T06:03:25;39.17;;;19.17;;
26391;SDS011;14572;43.120;1.178;2023-03-04T06:05:53;36.63;;;18.75;;
26391;SDS011;14572;43.120;1.178;2023-03-04T06:08:20;35.33;;;17.42;;
26391;SDS011;14572;43.120;1.178;2023-03-04T06:10:50;39.70;;;19.20;;
26391;SDS011;14572;43.120;1.178;2023-03-04T06:13:18;41.22;;;19.95;;
26391;SDS011;14572;43.120;1.178;2023-03-04T06:15:47;36.45;;;19.58;;
26391;SDS011;14572;43.120;1.178;2023-03-04T06:18:14;41.90;;;19.45;;
26391;SDS011;14572;43.120;1.178;2023-03-04T06:20:41;36.35;;;18.60;;
26391;SDS011;14572;43.120;1.178;2023-03-04T06:23:09;37.35;;;19.27;;
26391;SDS011;14572;43.120;1.178;2023-03-04T06:25:36;34.53;;;18.27;;
26391;SDS011;14572;43.120;1.178;2023-03-04T06:28:03;33.45;;;17.98;;
26391;SDS011;14572;43.120;1.178;2023-03-04T06:30:30;34.85;;;18.67;;
26391;SDS011;14572;43.120;1.178;2023-03-04T06:32:59;34.38;;;18.92;;
26391;SDS011;14572;43.120;1.178;2023-03-04T06:35:27;35.30;;;18.08;;
26391;SDS011;14572;43.120;1.178;2023-03-04T06:37:54;33.65;;;18.65;;
26391;SDS011;14572;43.120;1.178;2023-03-04T06:40:21;39.50;;;19.67;;
26391;SDS011;14572;43.120;1.178;2023-03-04T06:42:48;39.80;;;19.38;;
26391;SDS011;14572;43.120;1.178;2023-03-04T06:45:15;33.30;;;17.10;;
26391;SDS011;14572;43.120;1.178;2023-03-04T06:47:42;37.75;;;18.15;;
26391;SDS011;14572;43.120;1.178;2023-03-04T06:50:12;33.13;;;17.60;;
26391;SDS011;14572;43.120;1.178;2023-03-04T06:52:39;35.58;;;18.70;;
26391;SDS011;14572;43.120;1.178;2023-03-04T06:55:06;36.40;;;18.58;;
26391;SDS011;14572;43.120;1.178;2023-03-04T06:57:34;33.90;;;18.85;;
26391;SDS011;14572;43.120;1.178;2023-03-04T07:00:02;33.88;;;17.95;;
26391;SDS011;14572;43.120;1.178;2023-03-04T07:02:29;33.75;;;17.80;;
26391;SDS011;14572;43.120;1.178;2023-03-04T07:04:58;37.47;;;19.92;;
26391;SDS011;14572;43.120;1.178;2023-03-04T07:07:26;37.78;;;19.45;;
26391;SDS011;14572;43.120;1.178;2023-03-04T07:09:53;51.17;;;25.35;;
26391;SDS011;14572;43.120;1.178;2023-03-04T07:12:20;43.15;;;22.33;;
26391;SDS011;14572;43.120;1.178;2023-03-04T07:14:47;39.50;;;20.02;;
26391;SDS011;14572;43.120;1.178;2023-03-04T07:17:14;34.05;;;17.80;;
26391;SDS011;14572;43.120;1.178;2023-03-04T07:19:41;36.67;;;17.90;;
26391;SDS011;14572;43.120;1.178;2023-03-04T07:22:08;35.22;;;19.60;;
26391;SDS011;14572;43.120;1.178;2023-03-04T07:24:37;39.97;;;18.70;;
26391;SDS011;14572;43.120;1.178;2023-03-04T07:27:04;59.10;;;22.00;;
26391;SDS011;14572;43.120;1.178;2023-03-04T07:29:31;47.10;;;21.88;;
26391;SDS011;14572;43.120;1.178;2023-03-04T07:31:58;41.10;;;20.80;;
26391;SDS011;14572;43.120;1.178;2023-03-04T07:34:25;40.78;;;21.27;;
26391;SDS011;14572;43.120;1.178;2023-03-04T07:36:52;39.38;;;20.88;;
26391;SDS011;14572;43.120;1.178;2023-03-04T07:39:19;56.10;;;28.52;;
26391;SDS011;14572;43.120;1.178;2023-03-04T07:41:47;53.88;;;27.58;;
26391;SDS011;14572;43.120;1.178;2023-03-04T07:44:14;44.28;;;23.23;;
26391;SDS011;14572;43.120;1.178;2023-03-04T07:46:41;42.22;;;21.95;;
26391;SDS011;14572;43.120;1.178;2023-03-04T07:49:10;37.30;;;20.73;;
26391;SDS011;14572;43.120;1.178;2023-03-04T07:51:37;39.25;;;20.95;;
26391;SDS011;14572;43.120;1.178;2023-03-04T07:54:04;39.67;;;20.38;;
26391;SDS011;14572;43.120;1.178;2023-03-04T07:56:32;42.55;;;21.05;;
26391;SDS011;14572;43.120;1.178;2023-03-04T07:59:01;102.38;;;25.50;;
26391;SDS011;14572;43.120;1.178;2023-03-04T08:01:29;57.20;;;23.40;;
26391;SDS011;14572;43.120;1.178;2023-03-04T08:03:57;50.38;;;24.63;;
26391;SDS011;14572;43.120;1.178;2023-03-04T08:06:24;67.82;;;30.77;;
26391;SDS011;14572;43.120;1.178;2023-03-04T08:08:54;66.07;;;22.55;;
26391;SDS011;14572;43.120;1.178;2023-03-04T08:11:22;69.70;;;26.23;;
26391;SDS011;14572;43.120;1.178;2023-03-04T08:13:50;54.58;;;26.52;;
26391;SDS011;14572;43.120;1.178;2023-03-04T08:16:20;50.00;;;23.55;;
26391;SDS011;14572;43.120;1.178;2023-03-04T08:18:48;49.58;;;25.13;;
26391;SDS011;14572;43.120;1.178;2023-03-04T08:21:16;53.95;;;24.70;;
26391;SDS011;14572;43.120;1.178;2023-03-04T08:23:44;48.97;;;25.08;;
26391;SDS011;14572;43.120;1.178;2023-03-04T08:26:13;44.40;;;22.48;;
26391;SDS011;14572;43.120;1.178;2023-03-04T08:28:41;57.17;;;25.65;;
26391;SDS011;14572;43.120;1.178;2023-03-04T08:31:10;59.92;;;27.40;;
26391;SDS011;14572;43.120;1.178;2023-03-04T08:33:39;64.72;;;31.35;;
26391;SDS011;14572;43.120;1.178;2023-03-04T08:36:07;62.92;;;31.10;;
26391;SDS011;14572;43.120;1.178;2023-03-04T08:38:34;62.00;;;29.88;;
26391;SDS011;14572;43.120;1.178;2023-03-04T08:41:01;50.10;;;26.92;;
26391;SDS011;14572;43.120;1.178;2023-03-04T08:43:28;51.22;;;26.75;;
26391;SDS011;14572;43.120;1.178;2023-03-04T08:45:55;46.42;;;25.85;;
26391;SDS011;14572;43.120;1.178;2023-03-04T08:48:22;46.70;;;25.40;;
26391;SDS011;14572;43.120;1.178;2023-03-04T08:50:51;56.20;;;27.58;;
26391;SDS011;14572;43.120;1.178;2023-03-04T08:53:19;56.00;;;26.15;;
26391;SDS011;14572;43.120;1.178;2023-03-04T08:55:46;64.70;;;26.67;;
26391;SDS011;14572;43.120;1.178;2023-03-04T08:58:13;46.20;;;24.75;;
26391;SDS011;14572;43.120;1.178;2023-03-04T09:00:42;45.35;;;24.75;;
26391;SDS011;14572;43.120;1.178;2023-03-04T09:03:12;47.72;;;25.77;;
26391;SDS011;14572;43.120;1.178;2023-03-04T09:05:40;70.35;;;26.23;;
26391;SDS011;14572;43.120;1.178;2023-03-04T09:08:08;50.40;;;26.05;;
26391;SDS011;14572;43.120;1.178;2023-03-04T09:10:35;50.63;;;25.17;;
26391;SDS011;14572;43.120;1.178;2023-03-04T09:13:02;50.92;;;25.38;;
26391;SDS011;14572;43.120;1.178;2023-03-04T09:15:30;57.38;;;23.25;;
26391;SDS011;14572;43.120;1.178;2023-03-04T09:18:00;58.20;;;22.85;;
26391;SDS011;14572;43.120;1.178;2023-03-04T09:20:27;46.85;;;23.17;;
26391;SDS011;14572;43.120;1.178;2023-03-04T09:22:54;46.00;;;23.05;;
26391;SDS011;14572;43.120;1.178;2023-03-04T09:25:22;60.78;;;23.55;;
26391;SDS011;14572;43.120;1.178;2023-03-04T09:27:49;45.00;;;21.83;;
26391;SDS011;14572;43.120;1.178;2023-03-04T09:30:17;40.05;;;21.73;;
26391;SDS011;14572;43.120;1.178;2023-03-04T09:32:44;41.15;;;21.60;;
26391;SDS011;14572;43.120;1.178;2023-03-04T09:35:12;42.15;;;20.08;;
26391;SDS011;14572;43.120;1.178;2023-03-04T09:37:39;56.72;;;20.17;;
26391;SDS011;14572;43.120;1.178;2023-03-04T09:40:06;48.78;;;20.75;;
26391;SDS011;14572;43.120;1.178;2023-03-04T09:42:37;40.08;;;20.45;;
26391;SDS011;14572;43.120;1.178;2023-03-04T09:45:10;42.80;;;20.45;;
26391;SDS011;14572;43.120;1.178;2023-03-04T09:47:40;42.75;;;19.92;;
26391;SDS011;14572;43.120;1.178;2023-03-04T09:50:08;49.50;;;19.20;;
26391;SDS011;14572;43.120;1.178;2023-03-04T09:52:40;37.67;;;20.38;;
26391;SDS011;14572;43.120;1.178;2023-03-04T09:55:17;39.72;;;20.08;;
26391;SDS011;14572;43.120;1.178;2023-03-04T09:57:49;39.17;;;20.75;;
26391;SDS011;14572;43.120;1.178;2023-03-04T10:00:19;40.97;;;19.98;;
26391;SDS011;14572;43.120;1.178;2023-03-04T10:05:41;39.95;;;19.35;;
26391;SDS011;14572;43.120;1.178;2023-03-04T10:11:15;66.28;;;20.67;;
26391;SDS011;14572;43.120;1.178;2023-03-04T10:16:30;40.92;;;18.65;;
26391;SDS011;14572;43.120;1.178;2023-03-04T10:19:01;34.35;;;18.60;;
26391;SDS011;14572;43.120;1.178;2023-03-04T10:21:37;50.97;;;20.02;;
26391;SDS011;14572;43.120;1.178;2023-03-04T10:24:08;37.03;;;18.75;;
26391;SDS011;14572;43.120;1.178;2023-03-04T10:26:37;51.22;;;18.95;;
26391;SDS011;14572;43.120;1.178;2023-03-04T10:29:07;40.85;;;18.65;;
26391;SDS011;14572;43.120;1.178;2023-03-04T10:31:35;53.03;;;20.30;;
26391;SDS011;14572;43.120;1.178;2023-03-04T10:34:02;38.33;;;19.00;;
26391;SDS011;14572;43.120;1.178;2023-03-04T10:36:38;46.13;;;19.33;;
26391;SDS011;14572;43.120;1.178;2023-03-04T10:39:13;41.20;;;19.13;;
26391;SDS011;14572;43.120;1.178;2023-03-04T10:41:44;36.78;;;18.48;;
26391;SDS011;14572;43.120;1.178;2023-03-04T10:44:21;48.97;;;19.08;;
26391;SDS011;14572;43.120;1.178;2023-03-04T10:46:49;37.45;;;18.30;;
26391;SDS011;14572;43.120;1.178;2023-03-04T10:49:17;39.50;;;18.20;;
26391;SDS011;14572;43.120;1.178;2023-03-04T10:51:45;56.15;;;19.35;;
26391;SDS011;14572;43.120;1.178;2023-03-04T10:54:19;36.28;;;18.65;;
26391;SDS011;14572;43.120;1.178;2023-03-04T10:56:53;37.67;;;18.98;;
26391;SDS011;14572;43.120;1.178;2023-03-04T11:02:23;35.40;;;18.55;;
26391;SDS011;14572;43.120;1.178;2023-03-04T11:04:56;35.03;;;18.85;;
26391;SDS011;14572;43.120;1.178;2023-03-04T11:07:31;39.10;;;21.20;;
26391;SDS011;14572;43.120;1.178;2023-03-04T11:10:06;38.63;;;20.75;;
26391;SDS011;14572;43.120;1.178;2023-03-04T11:12:34;37.25;;;18.50;;
26391;SDS011;14572;43.120;1.178;2023-03-04T11:15:12;38.33;;;19.38;;
26391;SDS011;14572;43.120;1.178;2023-03-04T11:17:49;37.00;;;18.92;;
26391;SDS011;14572;43.120;1.178;2023-03-04T11:20:22;32.92;;;18.95;;
26391;SDS011;14572;43.120;1.178;2023-03-04T11:22:53;36.30;;;18.65;;
26391;SDS011;14572;43.120;1.178;2023-03-04T11:25:23;35.70;;;19.02;;
26391;SDS011;14572;43.120;1.178;2023-03-04T11:27:53;34.95;;;17.52;;
26391;SDS011;14572;43.120;1.178;2023-03-04T11:30:27;36.83;;;18.85;;
26391;SDS011;14572;43.120;1.178;2023-03-04T11:33:02;31.65;;;16.88;;
26391;SDS011;14572;43.120;1.178;2023-03-04T11:35:43;36.80;;;18.48;;
26391;SDS011;14572;43.120;1.178;2023-03-04T11:38:18;34.92;;;19.48;;
26391;SDS011;14572;43.120;1.178;2023-03-04T11:40:48;32.65;;;17.15;;
26391;SDS011;14572;43.120;1.178;2023-03-04T11:43:17;37.22;;;18.42;;
26391;SDS011;14572;43.120;1.178;2023-03-04T11:45:54;36.08;;;18.67;;
26391;SDS011;14572;43.120;1.178;2023-03-04T11:48:33;33.28;;;18.05;;
26391;SDS011;14572;43.120;1.178;2023-03-04T11:51:08;44.38;;;29.30;;
26391;SDS011;14572;43.120;1.178;2023-03-04T11:53:39;34.53;;;17.83;;
26391;SDS011;14572;43.120;1.178;2023-03-04T11:56:15;31.10;;;17.58;;
26391;SDS011;14572;43.120;1.178;2023-03-04T11:58:52;33.65;;;19.13;;
26391;SDS011;14572;43.120;1.178;2023-03-04T12:01:38;35.88;;;19.38;;
26391;SDS011;14572;43.120;1.178;2023-03-04T12:04:15;33.83;;;18.55;;
26391;SDS011;14572;43.120;1.178;2023-03-04T12:06:52;70.82;;;37.38;;
26391;SDS011;14572;43.120;1.178;2023-03-04T12:09:30;36.90;;;21.58;;
26391;SDS011;14572;43.120;1.178;2023-03-04T12:12:11;37.35;;;19.85;;
26391;SDS011;14572;43.120;1.178;2023-03-04T12:14:55;35.97;;;18.50;;
26391;SDS011;14572;43.120;1.178;2023-03-04T12:23:14;31.80;;;17.45;;
26391;SDS011;14572;43.120;1.178;2023-03-04T12:25:50;33.30;;;17.27;;
26391;SDS011;14572;43.120;1.178;2023-03-04T12:28:36;31.92;;;18.92;;
26391;SDS011;14572;43.120;1.178;2023-03-04T12:31:18;35.35;;;18.30;;
26391;SDS011;14572;43.120;1.178;2023-03-04T12:34:12;34.05;;;17.45;;
26391;SDS011;14572;43.120;1.178;2023-03-04T12:36:54;34.40;;;17.80;;
26391;SDS011;14572;43.120;1.178;2023-03-04T12:39:36;29.80;;;16.45;;
26391;SDS011;14572;43.120;1.178;2023-03-04T12:42:09;35.50;;;18.38;;
26391;SDS011;14572;43.120;1.178;2023-03-04T12:44:44;32.63;;;18.60;;
26391;SDS011;14572;43.120;1.178;2023-03-04T12:47:16;32.08;;;17.83;;
26391;SDS011;14572;43.120;1.178;2023-03-04T12:52:47;29.63;;;17.10;;
26391;SDS011;14572;43.120;1.178;2023-03-04T12:55:20;35.03;;;17.85;;
26391;SDS011;14572;43.120;1.178;2023-03-04T12:57:50;32.00;;;17.50;;
26391;SDS011;14572;43.120;1.178;2023-03-04T13:00:21;30.42;;;17.45;;
26391;SDS011;14572;43.120;1.178;2023-03-04T13:02:55;32.97;;;17.83;;
26391;SDS011;14572;43.120;1.178;2023-03-04T13:05:35;31.10;;;16.95;;
26391;SDS011;14572;43.120;1.178;2023-03-04T13:08:10;32.22;;;17.08;;
26391;SDS011;14572;43.120;1.178;2023-03-04T13:10:43;29.58;;;16.08;;
26391;SDS011;14572;43.120;1.178;2023-03-04T13:16:05;30.35;;;17.92;;
26391;SDS011;14572;43.120;1.178;2023-03-04T13:18:45;31.08;;;17.52;;
26391;SDS011;14572;43.120;1.178;2023-03-04T13:21:21;32.03;;;16.63;;
26391;SDS011;14572;43.120;1.178;2023-03-04T13:23:49;44.55;;;16.60;;
26391;SDS011;14572;43.120;1.178;2023-03-04T13:26:17;26.95;;;15.68;;
26391;SDS011;14572;43.120;1.178;2023-03-04T13:28:51;30.23;;;15.88;;
26391;SDS011;14572;43.120;1.178;2023-03-04T13:31:20;31.55;;;16.98;;
26391;SDS011;14572;43.120;1.178;2023-03-04T13:33:53;26.73;;;15.98;;
26391;SDS011;14572;43.120;1.178;2023-03-04T13:36:50;31.25;;;16.48;;
26391;SDS011;14572;43.120;1.178;2023-03-04T13:39:21;29.77;;;15.82;;
26391;SDS011;14572;43.120;1.178;2023-03-04T13:41:56;33.08;;;16.77;;
26391;SDS011;14572;43.120;1.178;2023-03-04T13:44:30;32.85;;;18.15;;
26391;SDS011;14572;43.120;1.178;2023-03-04T13:47:05;30.88;;;17.17;;
26391;SDS011;14572;43.120;1.178;2023-03-04T13:49:33;30.55;;;17.00;;
26391;SDS011;14572;43.120;1.178;2023-03-04T13:58:12;28.63;;;16.20;;
26391;SDS011;14572;43.120;1.178;2023-03-04T14:00:46;26.27;;;15.68;;
26391;SDS011;14572;43.120;1.178;2023-03-04T14:03:19;33.03;;;16.15;;
26391;SDS011;14572;43.120;1.178;2023-03-04T14:08:42;28.38;;;16.40;;
26391;SDS011;14572;43.120;1.178;2023-03-04T14:11:14;29.92;;;16.08;;
26391;SDS011;14572;43.120;1.178;2023-03-04T14:13:42;32.70;;;16.70;;
26391;SDS011;14572;43.120;1.178;2023-03-04T14:16:10;27.90;;;16.50;;
26391;SDS011;14572;43.120;1.178;2023-03-04T14:18:37;27.95;;;15.55;;
26391;SDS011;14572;43.120;1.178;2023-03-04T14:21:04;27.20;;;14.50;;
26391;SDS011;14572;43.120;1.178;2023-03-04T14:23:32;25.38;;;15.63;;
26391;SDS011;14572;43.120;1.178;2023-03-04T14:26:04;24.90;;;15.40;;
26391;SDS011;14572;43.120;1.178;2023-03-04T14:28:36;29.80;;;16.33;;
26391;SDS011;14572;43.120;1.178;2023-03-04T14:31:09;32.90;;;15.77;;
26391;SDS011;14572;43.120;1.178;2023-03-04T14:33:42;29.75;;;16.27;;
26391;SDS011;14572;43.120;1.178;2023-03-04T14:36:14;31.55;;;16.35;;
26391;SDS011;14572;43.120;1.178;2023-03-04T14:38:42;28.02;;;15.32;;
26391;SDS011;14572;43.120;1.178;2023-03-04T14:41:11;28.92;;;15.98;;
26391;SDS011;14572;43.120;1.178;2023-03-04T14:43:44;28.55;;;16.38;;
26391;SDS011;14572;43.120;1.178;2023-03-04T14:46:16;29.52;;;16.08;;
26391;SDS011;14572;43.120;1.178;2023-03-04T14:48:44;24.65;;;15.35;;
26391;SDS011;14572;43.120;1.178;2023-03-04T14:51:26;30.05;;;16.23;;
26391;SDS011;14572;43.120;1.178;2023-03-04T14:53:55;27.77;;;15.55;;
26391;SDS011;14572;43.120;1.178;2023-03-04T14:56:26;30.77;;;16.38;;
26391;SDS011;14572;43.120;1.178;2023-03-04T14:58:56;31.67;;;17.30;;
26391;SDS011;14572;43.120;1.178;2023-03-04T15:01:27;28.40;;;16.13;;
26391;SDS011;14572;43.120;1.178;2023-03-04T15:03:56;29.40;;;14.85;;
26391;SDS011;14572;43.120;1.178;2023-03-04T15:06:26;26.38;;;14.95;;
26391;SDS011;14572;43.120;1.178;2023-03-04T15:08:56;28.27;;;15.35;;
26391;SDS011;14572;43.120;1.178;2023-03-04T15:11:25;30.50;;;16.33;;
26391;SDS011;14572;43.120;1.178;2023-03-04T15:13:54;27.42;;;16.30;;
26391;SDS011;14572;43.120;1.178;2023-03-04T15:16:23;26.80;;;15.23;;
26391;SDS011;14572;43.120;1.178;2023-03-04T15:18:52;26.08;;;15.00;;
26391;SDS011;14572;43.120;1.178;2023-03-04T15:21:27;26.20;;;15.50;;
26391;SDS011;14572;43.120;1.178;2023-03-04T15:23:59;45.03;;;15.68;;
26391;SDS011;14572;43.120;1.178;2023-03-04T15:26:39;27.45;;;15.23;;
26391;SDS011;14572;43.120;1.178;2023-03-04T15:29:12;28.13;;;14.63;;
26391;SDS011;14572;43.120;1.178;2023-03-04T15:31:40;28.20;;;16.05;;
26391;SDS011;14572;43.120;1.178;2023-03-04T15:34:10;27.52;;;15.13;;
26391;SDS011;14572;43.120;1.178;2023-03-04T15:36:39;29.33;;;14.93;;
26391;SDS011;14572;43.120;1.178;2023-03-04T15:39:10;27.67;;;15.40;;
26391;SDS011;14572;43.120;1.178;2023-03-04T15:41:38;26.98;;;15.32;;
26391;SDS011;14572;43.120;1.178;2023-03-04T15:44:06;31.17;;;14.98;;
26391;SDS011;14572;43.120;1.178;2023-03-04T15:46:34;25.02;;;15.18;;
26391;SDS011;14572;43.120;1.178;2023-03-04T15:49:01;26.02;;;14.77;;
26391;SDS011;14572;43.120;1.178;2023-03-04T15:51:28;26.52;;;14.77;;
26391;SDS011;14572;43.120;1.178;2023-03-04T15:53:56;26.60;;;14.90;;
26391;SDS011;14572;43.120;1.178;2023-03-04T15:56:23;23.38;;;13.88;;
26391;SDS011;14572;43.120;1.178;2023-03-04T15:58:53;27.25;;;15.10;;
26391;SDS011;14572;43.120;1.178;2023-03-04T16:01:20;27.13;;;14.50;;
26391;SDS011;14572;43.120;1.178;2023-03-04T16:03:49;28.85;;;14.80;;
26391;SDS011;14572;43.120;1.178;2023-03-04T16:06:17;26.20;;;14.77;;
26391;SDS011;14572;43.120;1.178;2023-03-04T16:08:45;25.73;;;14.68;;
26391;SDS011;14572;43.120;1.178;2023-03-04T16:11:13;24.48;;;13.13;;
26391;SDS011;14572;43.120;1.178;2023-03-04T16:13:41;24.65;;;14.80;;
26391;SDS011;14572;43.120;1.178;2023-03-04T16:16:09;24.15;;;13.85;;
26391;SDS011;14572;43.120;1.178;2023-03-04T16:18:36;24.80;;;14.52;;
26391;SDS011;14572;43.120;1.178;2023-03-04T16:21:05;26.73;;;15.98;;
26391;SDS011;14572;43.120;1.178;2023-03-04T16:23:34;27.98;;;14.70;;
26391;SDS011;14572;43.120;1.178;2023-03-04T16:26:07;25.58;;;14.77;;
26391;SDS011;14572;43.120;1.178;2023-03-04T16:28:37;26.50;;;14.70;;
26391;SDS011;14572;43.120;1.178;2023-03-04T16:31:04;30.80;;;14.85;;
26391;SDS011;14572;43.120;1.178;2023-03-04T16:33:31;24.80;;;15.13;;
26391;SDS011;14572;43.120;1.178;2023-03-04T16:35:58;28.88;;;14.82;;
26391;SDS011;14572;43.120;1.178;2023-03-04T16:38:30;24.25;;;13.55;;
26391;SDS011;14572;43.120;1.178;2023-03-04T16:40:58;29.23;;;15.90;;
26391;SDS011;14572;43.120;1.178;2023-03-04T16:43:26;29.05;;;15.73;;
26391;SDS011;14572;43.120;1.178;2023-03-04T16:45:53;26.25;;;14.88;;
26391;SDS011;14572;43.120;1.178;2023-03-04T16:48:20;30.23;;;14.73;;
26391;SDS011;14572;43.120;1.178;2023-03-04T16:50:47;31.45;;;16.05;;
26391;SDS011;14572;43.120;1.178;2023-03-04T16:53:17;29.88;;;17.13;;
26391;SDS011;14572;43.120;1.178;2023-03-04T16:55:51;30.17;;;16.27;;
26391;SDS011;14572;43.120;1.178;2023-03-04T16:58:18;38.90;;;16.05;;
26391;SDS011;14572;43.120;1.178;2023-03-04T17:00:45;29.33;;;16.25;;
26391;SDS011;14572;43.120;1.178;2023-03-04T17:03:12;25.42;;;14.52;;
26391;SDS011;14572;43.120;1.178;2023-03-04T17:05:39;29.40;;;15.88;;
26391;SDS011;14572;43.120;1.178;2023-03-04T17:08:07;25.35;;;14.55;;
26391;SDS011;14572;43.120;1.178;2023-03-04T17:10:34;29.10;;;15.55;;
26391;SDS011;14572;43.120;1.178;2023-03-04T17:13:02;28.10;;;16.17;;
26391;SDS011;14572;43.120;1.178;2023-03-04T17:15:29;27.08;;;16.05;;
26391;SDS011;14572;43.120;1.178;2023-03-04T17:17:56;31.05;;;15.82;;
26391;SDS011;14572;43.120;1.178;2023-03-04T17:20:23;29.25;;;15.63;;
26391;SDS011;14572;43.120;1.178;2023-03-04T17:22:51;27.20;;;14.85;;
26391;SDS011;14572;43.120;1.178;2023-03-04T17:25:19;27.33;;;15.23;;
26391;SDS011;14572;43.120;1.178;2023-03-04T17:27:46;27.58;;;14.95;;
26391;SDS011;14572;43.120;1.178;2023-03-04T17:30:15;27.95;;;15.15;;
26391;SDS011;14572;43.120;1.178;2023-03-04T17:32:42;28.42;;;15.38;;
26391;SDS011;14572;43.120;1.178;2023-03-04T17:35:10;27.33;;;14.90;;
26391;SDS011;14572;43.120;1.178;2023-03-04T17:37:37;29.88;;;15.48;;
26391;SDS011;14572;43.120;1.178;2023-03-04T17:40:05;29.77;;;16.80;;
26391;SDS011;14572;43.120;1.178;2023-03-04T17:42:35;28.15;;;15.48;;
26391;SDS011;14572;43.120;1.178;2023-03-04T17:45:02;27.05;;;15.90;;
26391;SDS011;14572;43.120;1.178;2023-03-04T17:47:31;27.65;;;16.42;;
26391;SDS011;14572;43.120;1.178;2023-03-04T17:49:58;32.00;;;16.65;;
26391;SDS011;14572;43.120;1.178;2023-03-04T17:52:25;34.85;;;17.73;;
26391;SDS011;14572;43.120;1.178;2023-03-04T17:54:52;30.35;;;16.42;;
26391;SDS011;14572;43.120;1.178;2023-03-04T17:57:19;32.10;;;16.67;;
26391;SDS011;14572;43.120;1.178;2023-03-04T17:59:46;31.65;;;17.50;;
26391;SDS011;14572;43.120;1.178;2023-03-04T18:02:14;31.52;;;17.02;;
26391;SDS011;14572;43.120;1.178;2023-03-04T18:04:42;32.58;;;18.20;;
26391;SDS011;14572;43.120;1.178;2023-03-04T18:07:12;31.02;;;17.40;;
26391;SDS011;14572;43.120;1.178;2023-03-04T18:09:39;33.35;;;17.85;;
26391;SDS011;14572;43.120;1.178;2023-03-04T18:12:07;34.00;;;16.90;;
26391;SDS011;14572;43.120;1.178;2023-03-04T18:14:34;29.38;;;17.50;;
26391;SDS011;14572;43.120;1.178;2023-03-04T18:17:01;32.42;;;17.63;;
26391;SDS011;14572;43.120;1.178;2023-03-04T18:19:29;36.20;;;17.45;;
26391;SDS011;14572;43.120;1.178;2023-03-04T18:21:57;41.05;;;19.92;;
26391;SDS011;14572;43.120;1.178;2023-03-04T18:24:24;38.03;;;19.50;;
26391;SDS011;14572;43.120;1.178;2023-03-04T18:26:51;41.85;;;21.08;;
26391;SDS011;14572;43.120;1.178;2023-03-04T18:29:18;35.38;;;17.67;;
26391;SDS011;14572;43.120;1.178;2023-03-04T18:31:48;30.80;;;17.58;;
26391;SDS011;14572;43.120;1.178;2023-03-04T18:34:16;36.00;;;18.20;;
26391;SDS011;14572;43.120;1.178;2023-03-04T18:36:43;34.38;;;17.65;;
26391;SDS011;14572;43.120;1.178;2023-03-04T18:39:13;32.85;;;18.17;;
26391;SDS011;14572;43.120;1.178;2023-03-04T18:41:41;30.27;;;16.63;;
26391;SDS011;14572;43.120;1.178;2023-03-04T18:44:08;30.42;;;16.65;;
26391;SDS011;14572;43.120;1.178;2023-03-04T18:46:38;29.80;;;15.15;;
26391;SDS011;14572;43.120;1.178;2023-03-04T18:49:07;29.33;;;15.13;;
26391;SDS011;14572;43.120;1.178;2023-03-04T18:51:34;33.83;;;16.40;;
26391;SDS011;14572;43.120;1.178;2023-03-04T18:54:01;29.13;;;14.98;;
26391;SDS011;14572;43.120;1.178;2023-03-04T18:56:31;34.30;;;16.63;;
26391;SDS011;14572;43.120;1.178;2023-03-04T18:59:03;32.15;;;16.38;;
26391;SDS011;14572;43.120;1.178;2023-03-04T19:01:31;28.20;;;14.95;;
26391;SDS011;14572;43.120;1.178;2023-03-04T19:03:58;31.13;;;16.15;;
26391;SDS011;14572;43.120;1.178;2023-03-04T19:06:30;31.23;;;16.23;;
26391;SDS011;14572;43.120;1.178;2023-03-04T19:08:57;28.35;;;14.95;;
26391;SDS011;14572;43.120;1.178;2023-03-04T19:11:24;28.08;;;15.57;;
26391;SDS011;14572;43.120;1.178;2023-03-04T19:13:55;28.60;;;15.00;;
26391;SDS011;14572;43.120;1.178;2023-03-04T19:16:23;30.98;;;15.85;;
26391;SDS011;14572;43.120;1.178;2023-03-04T19:18:57;34.38;;;15.23;;
26391;SDS011;14572;43.120;1.178;2023-03-04T19:21:24;29.60;;;15.85;;
26391;SDS011;14572;43.120;1.178;2023-03-04T19:23:51;31.60;;;16.73;;
26391;SDS011;14572;43.120;1.178;2023-03-04T19:26:18;33.03;;;17.92;;
26391;SDS011;14572;43.120;1.178;2023-03-04T19:28:45;35.60;;;17.38;;
26391;SDS011;14572;43.120;1.178;2023-03-04T19:31:14;33.58;;;15.18;;
26391;SDS011;14572;43.120;1.178;2023-03-04T19:33:41;33.50;;;16.70;;
26391;SDS011;14572;43.120;1.178;2023-03-04T19:36:08;35.53;;;17.63;;
26391;SDS011;14572;43.120;1.178;2023-03-04T19:38:36;31.38;;;16.98;;
26391;SDS011;14572;43.120;1.178;2023-03-04T19:41:06;29.20;;;15.05;;
26391;SDS011;14572;43.120;1.178;2023-03-04T19:43:34;29.90;;;16.15;;
26391;SDS011;14572;43.120;1.178;2023-03-04T19:46:02;28.83;;;15.10;;
26391;SDS011;14572;43.120;1.178;2023-03-04T19:48:31;26.80;;;14.73;;
26391;SDS011;14572;43.120;1.178;2023-03-04T19:50:58;32.47;;;14.07;;
26391;SDS011;14572;43.120;1.178;2023-03-04T19:53:26;30.45;;;15.45;;
26391;SDS011;14572;43.120;1.178;2023-03-04T19:55:53;27.23;;;14.75;;
26391;SDS011;14572;43.120;1.178;2023-03-04T19:58:20;28.20;;;15.88;;
26391;SDS011;14572;43.120;1.178;2023-03-04T20:00:47;29.60;;;15.02;;
26391;SDS011;14572;43.120;1.178;2023-03-04T20:03:17;28.30;;;15.07;;
26391;SDS011;14572;43.120;1.178;2023-03-04T20:05:46;27.83;;;13.88;;
26391;SDS011;14572;43.120;1.178;2023-03-04T20:08:13;27.95;;;13.90;;
26391;SDS011;14572;43.120;1.178;2023-03-04T20:10:40;29.67;;;13.95;;
26391;SDS011;14572;43.120;1.178;2023-03-04T20:13:07;28.75;;;14.65;;
26391;SDS011;14572;43.120;1.178;2023-03-04T20:15:34;26.85;;;13.80;;
26391;SDS011;14572;43.120;1.178;2023-03-04T20:18:02;30.70;;;14.90;;
26391;SDS011;14572;43.120;1.178;2023-03-04T20:20:29;28.52;;;14.63;;
26391;SDS011;14572;43.120;1.178;2023-03-04T20:22:58;27.10;;;15.10;;
26391;SDS011;14572;43.120;1.178;2023-03-04T20:25:24;28.80;;;14.65;;
26391;SDS011;14572;43.120;1.178;2023-03-04T20:27:55;24.75;;;14.80;;
26391;SDS011;14572;43.120;1.178;2023-03-04T20:30:22;26.48;;;14.98;;
26391;SDS011;14572;43.120;1.178;2023-03-04T20:32:49;29.45;;;15.32;;
26391;SDS011;14572;43.120;1.178;2023-03-04T20:35:16;25.70;;;14.23;;
26391;SDS011;14572;43.120;1.178;2023-03-04T20:37:43;28.95;;;14.55;;
26391;SDS011;14572;43.120;1.178;2023-03-04T20:40:12;28.17;;;14.40;;
26391;SDS011;14572;43.120;1.178;2023-03-04T20:42:39;27.73;;;14.75;;
26391;SDS011;14572;43.120;1.178;2023-03-04T20:45:07;32.22;;;16.27;;
26391;SDS011;14572;43.120;1.178;2023-03-04T20:47:34;27.85;;;15.52;;
26391;SDS011;14572;43.120;1.178;2023-03-04T20:50:01;27.20;;;15.55;;
26391;SDS011;14572;43.120;1.178;2023-03-04T20:52:30;32.70;;;15.70;;
26391;SDS011;14572;43.120;1.178;2023-03-04T20:54:57;30.50;;;17.52;;
26391;SDS011;14572;43.120;1.178;2023-03-04T20:57:25;33.90;;;17.63;;
26391;SDS011;14572;43.120;1.178;2023-03-04T20:59:54;32.92;;;17.15;;
26391;SDS011;14572;43.120;1.178;2023-03-04T21:02:21;30.90;;;16.60;;
26391;SDS011;14572;43.120;1.178;2023-03-04T21:04:49;29.95;;;15.27;;